createdAt,value
2023-04-12T00:00:55.210Z,12.15
2023-04-12T00:03:22.948Z,12.16
2023-04-12T00:05:53.966Z,12.17
2023-04-12T00:08:32.428Z,12.18
2023-04-12T00:11:01.757Z,12.18
2023-04-12T00:13:29.083Z,12.16
2023-04-12T00:15:57.535Z,12.15
2023-04-12T00:18:26.876Z,12.15
2023-04-12T00:20:55.013Z,12.14
2023-04-12T00:23:23.879Z,12.09
2023-04-12T00:25:50.717Z,12.06
2023-04-12T00:28:17.381Z,12.05
2023-04-12T00:30:45.316Z,12.06
2023-04-12T00:33:12.272Z,12.05
2023-04-12T00:35:39.118Z,12.05
2023-04-12T00:38:09.946Z,12.07
2023-04-12T00:40:42.359Z,12.06
2023-04-12T00:43:14.754Z,12.03
2023-04-12T00:45:42.253Z,12.02
2023-04-12T00:48:12.949Z,12.00
2023-04-12T00:50:44.609Z,11.99
2023-04-12T00:53:17.487Z,11.95
2023-04-12T00:55:47.110Z,11.91
2023-04-12T00:58:15.785Z,11.91
2023-04-12T01:00:49.661Z,11.90
2023-04-12T01:03:27.303Z,11.89
2023-04-12T01:06:15.824Z,11.87
2023-04-12T01:08:47.569Z,11.86
2023-04-12T01:11:14.333Z,11.86
2023-04-12T01:13:45.480Z,11.86
2023-04-12T01:16:22.422Z,11.85
2023-04-12T01:18:52.371Z,11.85
2023-04-12T01:21:42.911Z,11.84
2023-04-12T01:24:20.971Z,11.84
2023-04-12T01:26:48.238Z,11.84
2023-04-12T01:29:16.644Z,11.85
2023-04-12T01:31:54.479Z,11.85
2023-04-12T01:34:25.140Z,11.85
2023-04-12T01:36:51.866Z,11.85
2023-04-12T01:39:19.338Z,11.85
2023-04-12T01:41:48.420Z,11.85
2023-04-12T01:44:15.749Z,11.84
2023-04-12T01:46:48.984Z,11.85
2023-04-12T01:49:15.983Z,11.85
2023-04-12T01:51:54.362Z,11.85
2023-04-12T01:54:25.995Z,11.84
2023-04-12T01:56:57.435Z,11.84
2023-04-12T01:59:26.714Z,11.84
2023-04-12T02:01:59.404Z,11.84
2023-04-12T02:04:27.288Z,11.83
2023-04-12T02:06:55.551Z,11.83
2023-04-12T02:09:26.821Z,11.81
2023-04-12T02:11:55.794Z,11.80
2023-04-12T02:14:23.146Z,11.79
2023-04-12T02:16:57.819Z,11.80
2023-04-12T02:19:24.715Z,11.79
2023-04-12T02:21:51.995Z,11.79
2023-04-12T02:24:26.917Z,11.80
2023-04-12T02:26:54.685Z,11.81
2023-04-12T02:29:23.345Z,11.81
2023-04-12T02:31:51.901Z,11.79
2023-04-12T02:34:24.767Z,11.78
2023-04-12T02:36:59.401Z,11.79
2023-04-12T02:39:28.611Z,11.80
2023-04-12T02:41:56.360Z,11.80
2023-04-12T02:44:23.051Z,11.80
2023-04-12T02:47:08.053Z,11.81
2023-04-12T02:49:36.509Z,11.81
2023-04-12T02:52:04.611Z,11.80
2023-04-12T02:54:38.923Z,11.79
2023-04-12T02:57:06.214Z,11.78
2023-04-12T02:59:36.134Z,11.77
2023-04-12T03:02:10.952Z,11.79
2023-04-12T03:04:39.479Z,11.82
2023-04-12T03:07:08.807Z,11.84
2023-04-12T03:09:49.831Z,11.87
2023-04-12T03:12:17.420Z,11.85
2023-04-12T03:14:57.664Z,11.83
2023-04-12T03:17:26.570Z,11.83
2023-04-12T03:19:54.531Z,11.83
2023-04-12T03:22:22.457Z,11.84
2023-04-12T03:24:53.649Z,11.85
2023-04-12T03:27:21.528Z,11.86
2023-04-12T03:29:49.104Z,11.88
2023-04-12T03:32:17.097Z,11.90
2023-04-12T03:34:45.197Z,11.91
2023-04-12T03:37:12.848Z,11.91
2023-04-12T03:39:47.130Z,11.92
2023-04-12T03:42:31.660Z,11.91
2023-04-12T03:45:02.151Z,11.93
2023-04-12T03:47:29.360Z,11.93
2023-04-12T03:52:33.619Z,11.94
2023-04-12T03:55:01.124Z,11.95
2023-04-12T03:57:28.305Z,11.95
2023-04-12T03:59:55.414Z,11.94
2023-04-12T04:02:26.531Z,11.91
2023-04-12T04:04:54.873Z,11.89
2023-04-12T04:07:26.491Z,11.90
2023-04-12T04:09:55.197Z,11.92
2023-04-12T04:12:22.752Z,11.95
2023-04-12T04:14:54.608Z,11.97
2023-04-12T04:17:32.184Z,11.98
2023-04-12T04:20:05.070Z,11.97
2023-04-12T04:22:32.768Z,11.95
2023-04-12T04:25:02.468Z,11.93
2023-04-12T04:27:33.801Z,11.96
2023-04-12T04:30:02.480Z,11.99
2023-04-12T04:32:31.102Z,12.01
2023-04-12T04:34:59.647Z,12.03
2023-04-12T04:37:34.889Z,12.02
2023-04-12T04:40:14.113Z,12.03
2023-04-12T04:42:45.771Z,12.04
2023-04-12T04:45:14.149Z,12.06
2023-04-12T04:47:43.648Z,12.09
2023-04-12T04:50:11.040Z,12.11
2023-04-12T04:52:38.615Z,12.11
2023-04-12T04:55:11.234Z,12.12
2023-04-12T04:57:40.653Z,12.12
2023-04-12T05:00:11.151Z,12.13
2023-04-12T05:02:44.990Z,12.16
2023-04-12T05:05:17.673Z,12.17
2023-04-12T05:07:45.085Z,12.14
2023-04-12T05:10:12.136Z,12.14
2023-04-12T05:12:40.361Z,12.14
2023-04-12T05:15:12.051Z,12.17
2023-04-12T05:17:39.509Z,12.24
2023-04-12T05:20:07.238Z,12.25
2023-04-12T05:22:35.484Z,12.24
2023-04-12T05:25:03.258Z,12.24
2023-04-12T05:27:31.697Z,12.26
2023-04-12T05:29:58.958Z,12.27
2023-04-12T05:32:28.937Z,12.32
2023-04-12T05:35:04.527Z,12.36
2023-04-12T05:37:40.579Z,12.38
2023-04-12T05:40:09.198Z,12.37
2023-04-12T05:42:36.832Z,12.38
2023-04-12T05:45:05.051Z,12.39
2023-04-12T05:47:36.119Z,12.37
2023-04-12T05:50:03.861Z,12.38
2023-04-12T05:52:38.284Z,12.38
2023-04-12T06:08:43.226Z,12.36
2023-04-12T06:11:12.057Z,12.38
2023-04-12T06:13:39.121Z,12.37
2023-04-12T06:16:08.085Z,12.37
2023-04-12T06:18:35.469Z,12.32
2023-04-12T06:21:04.767Z,12.31
2023-04-12T06:23:34.546Z,12.31
2023-04-12T06:26:01.452Z,12.31
2023-04-12T06:28:31.693Z,12.31
2023-04-12T06:30:59.703Z,12.29
2023-04-12T06:33:27.600Z,12.28
2023-04-12T06:35:54.964Z,12.28
2023-04-12T06:38:23.760Z,12.34
2023-04-12T06:40:52.794Z,12.37
2023-04-12T06:43:22.154Z,12.41
2023-04-12T06:45:49.423Z,12.41
2023-04-12T06:48:16.078Z,12.42
2023-04-12T06:50:44.197Z,12.42
2023-04-12T06:53:12.967Z,12.41
2023-04-12T06:55:40.408Z,12.45
2023-04-12T06:58:07.325Z,12.49
2023-04-12T07:00:34.475Z,12.47
2023-04-12T07:03:01.830Z,12.47
2023-04-12T07:05:29.056Z,12.50
2023-04-12T07:07:56.941Z,12.52
2023-04-12T07:10:23.882Z,12.54
2023-04-12T07:12:51.310Z,12.55
2023-04-12T07:15:19.081Z,12.54
2023-04-12T07:17:46.729Z,12.59
2023-04-12T07:20:13.594Z,12.63
2023-04-12T07:22:42.394Z,12.64
2023-04-12T07:25:13.150Z,12.64
2023-04-12T07:27:46.643Z,12.69
2023-04-12T07:30:17.369Z,12.71
2023-04-12T07:32:44.806Z,12.72
2023-04-12T07:35:14.180Z,12.77
2023-04-12T07:37:41.883Z,12.77
2023-04-12T07:40:08.894Z,12.76
2023-04-12T07:42:36.364Z,12.81
2023-04-12T07:45:03.539Z,12.84
2023-04-12T07:47:32.411Z,12.83
2023-04-12T07:49:59.781Z,12.87
2023-04-12T07:52:26.766Z,12.88
2023-04-12T07:54:56.861Z,12.84
2023-04-12T07:57:26.202Z,12.88
2023-04-12T07:59:52.916Z,12.92
2023-04-12T08:02:27.250Z,12.87
2023-04-12T08:04:57.340Z,12.87
2023-04-12T08:07:27.220Z,12.90
2023-04-12T08:09:58.464Z,12.87
2023-04-12T08:12:28.863Z,12.91
2023-04-12T08:15:03.132Z,12.94
2023-04-12T08:17:31.106Z,12.92
2023-04-12T08:19:58.469Z,12.96
2023-04-12T08:22:29.569Z,12.98
2023-04-12T08:24:57.280Z,12.96
2023-04-12T08:27:23.995Z,13.00
2023-04-12T08:29:53.013Z,12.97
2023-04-12T08:32:19.606Z,12.95
2023-04-12T08:34:46.423Z,12.99
2023-04-12T08:37:20.836Z,12.98
2023-04-12T08:39:47.501Z,12.97
2023-04-12T08:42:15.491Z,12.93
2023-04-12T08:44:42.199Z,12.92
2023-04-12T08:47:10.096Z,12.97
2023-04-12T08:49:40.473Z,13.00
2023-04-12T08:52:08.101Z,13.01
2023-04-12T08:54:35.116Z,13.03
2023-04-12T08:57:04.390Z,13.06
2023-04-12T08:59:31.812Z,13.09
2023-04-12T09:01:58.905Z,13.15
2023-04-12T09:04:26.932Z,13.17
2023-04-12T09:06:53.781Z,13.15
2023-04-12T09:09:39.993Z,13.17
2023-04-12T09:12:07.689Z,13.19
2023-04-12T09:14:34.859Z,13.22
2023-04-12T09:17:01.657Z,13.25
2023-04-12T09:19:49.371Z,13.29
2023-04-12T09:22:18.982Z,13.32
2023-04-12T09:24:51.017Z,13.30
2023-04-12T09:27:20.433Z,13.29
2023-04-12T09:29:50.805Z,13.29
2023-04-12T09:32:25.896Z,13.28
2023-04-12T09:34:57.061Z,13.28
2023-04-12T09:37:23.994Z,13.30
2023-04-12T09:40:00.460Z,13.31
2023-04-12T09:42:33.332Z,13.28
2023-04-12T09:45:18.747Z,13.27
2023-04-12T09:47:46.307Z,13.27
2023-04-12T09:50:39.475Z,13.24
2023-04-12T09:53:17.835Z,13.23
2023-04-12T09:55:46.037Z,13.28
2023-04-12T09:58:12.743Z,13.29
2023-04-12T10:00:43.593Z,13.30
2023-04-12T10:03:11.123Z,13.33
2023-04-12T10:05:39.855Z,13.31
2023-04-12T10:08:06.753Z,13.32
2023-04-12T10:10:33.815Z,13.36
2023-04-12T10:13:01.393Z,13.32
2023-04-12T10:15:36.497Z,13.32
2023-04-12T10:18:06.668Z,13.32
2023-04-12T10:20:33.503Z,13.34
2023-04-12T10:23:03.069Z,13.35
2023-04-12T10:25:31.150Z,13.34
2023-04-12T10:28:12.264Z,13.34
2023-04-12T10:30:42.107Z,13.36
2023-04-12T10:33:32.755Z,13.38
2023-04-12T10:36:10.355Z,13.38
2023-04-12T10:38:47.402Z,13.39
2023-04-12T10:41:17.428Z,13.39
2023-04-12T10:43:45.477Z,13.42
2023-04-12T10:46:38.073Z,13.45
2023-04-12T10:49:09.590Z,13.43
2023-04-12T10:52:10.249Z,13.44
2023-04-12T10:54:37.247Z,13.46
2023-04-12T10:57:06.306Z,13.45
2023-04-12T10:59:55.459Z,13.48
2023-04-12T11:02:22.506Z,13.49
2023-04-12T11:05:08.240Z,13.54
2023-04-12T11:08:05.650Z,13.57
2023-04-12T11:11:02.520Z,13.59
2023-04-12T11:13:35.711Z,13.59
2023-04-12T11:16:08.496Z,13.62
2023-04-12T11:18:36.097Z,13.61
2023-04-12T11:21:06.392Z,13.58
2023-04-12T11:23:35.765Z,13.59
2023-04-12T11:26:03.965Z,13.62
2023-04-12T11:28:34.643Z,13.61
2023-04-12T11:31:06.745Z,13.61
2023-04-12T11:33:37.440Z,13.63
2023-04-12T11:36:12.512Z,13.63
2023-04-12T11:38:41.898Z,13.67
2023-04-12T11:41:11.528Z,13.72
2023-04-12T11:43:40.987Z,13.74
2023-04-12T11:46:11.484Z,13.74
2023-04-12T11:53:30.579Z,13.81
2023-04-12T11:56:00.640Z,13.81
2023-04-12T11:58:30.321Z,13.82
2023-04-12T12:01:00.666Z,13.86
2023-04-12T12:03:30.714Z,13.88
2023-04-12T12:06:00.952Z,13.89
2023-04-12T12:08:30.664Z,13.93
2023-04-12T12:11:07.805Z,13.97
2023-04-12T12:13:54.142Z,14.02
2023-04-12T12:16:28.373Z,14.04
2023-04-12T12:19:04.568Z,14.04
2023-04-12T12:21:34.571Z,14.02
2023-04-12T12:24:03.681Z,14.00
2023-04-12T12:26:33.278Z,13.96
2023-04-12T12:36:36.777Z,14.01
2023-04-12T12:39:07.946Z,14.00
2023-04-12T12:41:36.696Z,14.01
2023-04-12T12:44:07.065Z,14.01
2023-04-12T12:49:07.400Z,13.96
2023-04-12T12:51:36.797Z,13.97
2023-04-12T12:54:05.627Z,14.00
2023-04-12T12:56:37.554Z,14.03
2023-04-12T12:59:06.242Z,14.04
2023-04-12T13:01:34.836Z,14.03
2023-04-12T13:04:03.176Z,14.07
2023-04-12T13:06:32.175Z,14.12
2023-04-12T13:09:00.709Z,14.15
2023-04-12T13:11:30.167Z,14.15
2023-04-12T13:13:59.149Z,14.14
2023-04-12T13:16:27.453Z,14.16
2023-04-12T13:18:56.310Z,14.19
2023-04-12T13:21:27.256Z,14.16
2023-04-12T13:23:55.599Z,14.14
2023-04-12T13:26:25.806Z,14.11
2023-04-12T13:28:54.003Z,14.11
2023-04-12T13:31:29.006Z,14.11
2023-04-12T13:33:58.940Z,14.09
2023-04-12T13:36:27.376Z,14.06
2023-04-12T13:38:55.511Z,14.04
2023-04-12T13:41:24.114Z,14.00
2023-04-12T13:43:52.398Z,14.01
2023-04-12T13:46:21.471Z,14.05
2023-04-12T13:48:51.428Z,14.02
2023-04-12T13:51:20.253Z,14.01
2023-04-12T13:53:53.753Z,14.02
2023-04-12T13:56:22.516Z,14.04
2023-04-12T13:58:51.580Z,14.06
2023-04-12T14:01:23.797Z,14.06
2023-04-12T14:03:53.965Z,14.04
2023-04-12T14:06:22.138Z,14.04
2023-04-12T14:08:52.752Z,14.02
2023-04-12T14:11:23.877Z,13.98
2023-04-12T14:13:52.015Z,13.96
2023-04-12T14:16:25.574Z,13.95
2023-04-12T14:18:54.509Z,13.94
2023-04-12T14:21:28.613Z,13.92
2023-04-12T14:23:59.198Z,13.96
2023-04-12T14:26:27.800Z,13.94
2023-04-12T14:28:56.814Z,13.89
2023-04-12T14:31:30.209Z,13.89
2023-04-12T14:33:58.836Z,13.88
2023-04-12T14:36:29.027Z,13.88
2023-04-12T14:39:00.025Z,13.87
2023-04-12T14:41:29.678Z,13.87
2023-04-12T14:44:00.466Z,13.87
2023-04-12T14:46:29.409Z,13.89
2023-04-12T14:49:01.678Z,13.93
2023-04-12T14:51:38.906Z,13.95
2023-04-12T14:54:08.265Z,13.93
2023-04-12T14:56:43.402Z,13.94
2023-04-12T14:59:23.552Z,13.95
2023-04-12T15:01:52.923Z,13.93
2023-04-12T15:04:21.619Z,13.93
2023-04-12T15:06:53.310Z,13.93
2023-04-12T15:09:21.549Z,13.92
2023-04-12T15:11:55.319Z,13.90
2023-04-12T15:14:29.200Z,13.87
2023-04-12T15:17:00.166Z,13.87
2023-04-12T15:19:28.699Z,13.86
2023-04-12T15:21:57.320Z,13.84
2023-04-12T15:24:28.512Z,13.85
2023-04-12T15:27:29.422Z,13.83
2023-04-12T15:30:10.841Z,13.76
2023-04-12T15:32:42.636Z,13.72
2023-04-12T15:37:42.587Z,13.70
2023-04-12T15:40:15.945Z,13.70
2023-04-12T15:42:47.577Z,13.69
2023-04-12T15:45:17.178Z,13.68
2023-04-12T15:47:47.253Z,13.66
2023-04-12T15:50:19.306Z,13.63
2023-04-12T15:52:51.995Z,13.60
2023-04-12T15:55:22.099Z,13.56
2023-04-12T15:57:50.861Z,13.53
2023-04-12T16:00:26.771Z,13.51
2023-04-12T16:02:59.123Z,13.50
2023-04-12T16:05:32.054Z,13.47
2023-04-12T16:08:01.796Z,13.43
2023-04-12T16:10:33.783Z,13.42
2023-04-12T16:13:02.161Z,13.42
2023-04-12T16:15:30.832Z,13.43
2023-04-12T16:17:59.038Z,13.44
2023-04-12T16:20:28.125Z,13.44
2023-04-12T16:22:56.252Z,13.44
2023-04-12T16:25:28.057Z,13.43
2023-04-12T16:27:57.687Z,13.39
2023-04-12T16:30:56.647Z,13.35
2023-04-12T16:33:28.104Z,13.31
2023-04-12T16:35:58.044Z,13.27
2023-04-12T16:38:28.182Z,13.26
2023-04-12T16:41:00.618Z,13.26
2023-04-12T16:43:30.798Z,13.25
2023-04-12T16:46:17.937Z,13.25
2023-04-12T16:48:47.982Z,13.24
2023-04-12T16:51:17.670Z,13.24
2023-04-12T16:53:51.706Z,13.21
2023-04-12T16:56:20.820Z,13.17
2023-04-12T16:58:49.175Z,13.15
2023-04-12T17:01:20.818Z,13.12
2023-04-12T17:03:50.617Z,13.10
2023-04-12T17:06:21.728Z,13.09
2023-04-12T17:08:50.370Z,13.10
2023-04-12T17:11:19.757Z,13.09
2023-04-12T17:13:50.103Z,13.08
2023-04-12T17:16:23.030Z,13.12
2023-04-12T17:18:51.538Z,13.14
2023-04-12T17:21:20.639Z,13.12
2023-04-12T17:23:48.806Z,13.11
2023-04-12T17:26:19.116Z,13.10
2023-04-12T17:28:50.932Z,13.11
2023-04-12T17:31:21.478Z,13.11
2023-04-12T17:33:54.009Z,13.10
2023-04-12T17:36:22.487Z,13.08
2023-04-12T17:38:50.656Z,13.10
2023-04-12T17:41:18.813Z,13.10
2023-04-12T17:43:47.336Z,13.10
2023-04-12T17:46:16.321Z,13.11
2023-04-12T17:48:45.373Z,13.11
2023-04-12T17:51:13.545Z,13.11
2023-04-12T17:53:51.087Z,13.10
2023-04-12T17:56:20.524Z,13.08
2023-04-12T17:58:48.909Z,13.07
2023-04-12T18:01:17.601Z,13.06
2023-04-12T18:03:47.815Z,13.05
2023-04-12T18:06:18.530Z,13.04
2023-04-12T18:08:50.008Z,13.04
2023-04-12T18:11:19.624Z,13.04
2023-04-12T18:13:48.239Z,13.06
2023-04-12T18:16:16.806Z,13.07
2023-04-12T18:18:46.065Z,13.05
2023-04-12T18:21:16.260Z,13.04
2023-04-12T18:23:44.799Z,13.03
2023-04-12T18:26:18.177Z,12.99
2023-04-12T18:28:47.620Z,12.94
2023-04-12T18:31:19.032Z,12.90
2023-04-12T18:33:47.850Z,12.88
2023-04-12T18:36:16.988Z,12.85
2023-04-12T18:38:46.109Z,12.82
2023-04-12T18:41:18.001Z,12.81
2023-04-12T18:43:46.758Z,12.80
2023-04-12T18:46:18.497Z,12.79
2023-04-12T18:48:48.279Z,12.81
2023-04-12T18:51:16.365Z,12.81
2023-04-12T18:53:44.723Z,12.79
2023-04-12T18:56:14.350Z,12.79
2023-04-12T18:58:54.410Z,12.78
2023-04-12T19:01:24.751Z,12.78
2023-04-12T19:03:55.225Z,12.78
2023-04-12T19:06:23.940Z,12.77
2023-04-12T19:08:52.487Z,12.78
2023-04-12T19:11:24.901Z,12.77
2023-04-12T19:13:56.268Z,12.75
2023-04-12T19:16:24.690Z,12.74
2023-04-12T19:18:55.263Z,12.73
2023-04-12T19:21:24.448Z,12.71
2023-04-12T19:23:53.432Z,12.73
2023-04-12T19:26:23.057Z,12.71
2023-04-12T19:28:55.761Z,12.70
2023-04-12T19:31:24.709Z,12.69
2023-04-12T19:33:55.993Z,12.66
2023-04-12T19:36:24.650Z,12.64
2023-04-12T19:38:53.330Z,12.65
2023-04-12T19:41:23.039Z,12.66
2023-04-12T19:43:51.247Z,12.65
2023-04-12T19:46:19.736Z,12.64
2023-04-12T19:48:48.935Z,12.64
2023-04-12T19:51:17.069Z,12.62
2023-04-12T19:53:48.220Z,12.61
2023-04-12T19:56:17.825Z,12.62
2023-04-12T19:58:46.814Z,12.62
2023-04-12T20:01:16.573Z,12.62
2023-04-12T20:03:45.661Z,12.60
2023-04-12T20:06:14.525Z,12.59
2023-04-12T20:08:42.749Z,12.59
2023-04-12T20:11:13.906Z,12.58
2023-04-12T20:13:59.078Z,12.58
2023-04-12T20:16:27.612Z,12.57
2023-04-12T20:18:57.825Z,12.56
2023-04-12T20:21:27.880Z,12.55
2023-04-12T20:23:56.291Z,12.53
2023-04-12T20:26:27.641Z,12.52
2023-04-12T20:28:56.861Z,12.53
2023-04-12T20:31:26.120Z,12.55
2023-04-12T20:33:58.057Z,12.57
2023-04-12T20:36:29.898Z,12.58
2023-04-12T20:39:01.774Z,12.58
2023-04-12T20:41:30.923Z,12.59
2023-04-12T20:44:02.859Z,12.58
2023-04-12T20:46:36.823Z,12.58
2023-04-12T20:49:07.242Z,12.58
2023-04-12T20:51:35.521Z,12.60
2023-04-12T20:54:04.044Z,12.60
2023-04-12T20:56:32.805Z,12.59
2023-04-12T20:59:02.770Z,12.60
2023-04-12T21:01:33.640Z,12.61
2023-04-12T21:04:06.465Z,12.63
2023-04-12T21:06:35.108Z,12.63
2023-04-12T21:09:06.010Z,12.63
2023-04-12T21:11:34.516Z,12.63
2023-04-12T21:14:05.766Z,12.63
2023-04-12T21:16:38.689Z,12.62
2023-04-12T21:19:08.482Z,12.60
2023-04-12T21:21:37.255Z,12.60
2023-04-12T21:24:07.654Z,12.60
2023-04-12T21:26:36.125Z,12.61
2023-04-12T21:29:04.851Z,12.62
2023-04-12T21:31:34.588Z,12.62
2023-04-12T21:34:04.010Z,12.63
2023-04-12T21:36:33.161Z,12.62
2023-04-12T21:39:01.826Z,12.62
2023-04-12T21:41:30.145Z,12.62
2023-04-12T21:43:58.775Z,12.62
2023-04-12T21:46:28.329Z,12.64
2023-04-12T21:48:57.378Z,12.64
2023-04-12T21:51:26.607Z,12.64
2023-04-12T21:53:57.463Z,12.63
2023-04-12T21:56:26.292Z,12.62
2023-04-12T21:58:58.904Z,12.62
2023-04-12T22:01:28.029Z,12.63
2023-04-12T22:03:57.473Z,12.62
2023-04-12T22:06:26.021Z,12.60
2023-04-12T22:08:55.608Z,12.59
2023-04-12T22:11:24.473Z,12.58
2023-04-12T22:13:55.100Z,12.58
2023-04-12T22:16:24.840Z,12.59
2023-04-12T22:18:53.043Z,12.59
2023-04-12T22:21:28.523Z,12.59
2023-04-12T22:23:57.457Z,12.58
2023-04-12T22:26:26.645Z,12.58
2023-04-12T22:28:58.513Z,12.57
2023-04-12T22:31:27.689Z,12.58
2023-04-12T22:33:56.258Z,12.57
2023-04-12T22:36:28.540Z,12.57
2023-04-12T22:38:57.563Z,12.55
2023-04-12T22:41:28.615Z,12.55
2023-04-12T22:44:02.841Z,12.55
2023-04-12T22:46:32.453Z,12.55
2023-04-12T22:49:00.860Z,12.54
2023-04-12T22:51:32.738Z,12.52
2023-04-12T22:54:03.147Z,12.53
2023-04-12T22:56:31.253Z,12.53
2023-04-12T22:58:59.667Z,12.53
2023-04-12T23:01:29.484Z,12.54
2023-04-12T23:04:01.318Z,12.54
2023-04-12T23:06:31.582Z,12.54
2023-04-12T23:09:00.371Z,12.53
2023-04-12T23:11:28.693Z,12.52
2023-04-12T23:14:04.968Z,12.51
2023-04-12T23:16:35.447Z,12.51
2023-04-12T23:19:05.401Z,12.51
2023-04-12T23:21:35.116Z,12.51
2023-04-12T23:24:05.434Z,12.50
2023-04-12T23:26:36.624Z,12.49
2023-04-12T23:29:05.118Z,12.50
2023-04-12T23:31:35.394Z,12.49
2023-04-12T23:34:06.264Z,12.50
2023-04-12T23:36:34.743Z,12.49
2023-04-12T23:39:09.383Z,12.49
2023-04-12T23:41:40.736Z,12.49
2023-04-12T23:44:12.681Z,12.49
2023-04-12T23:46:43.226Z,12.47
2023-04-12T23:49:12.515Z,12.47
2023-04-12T23:51:48.134Z,12.49
2023-04-12T23:54:17.661Z,12.49
2023-04-12T23:56:46.724Z,12.48
2023-04-12T23:59:22.479Z,12.48
